Airfield :
LOGIN :

Register | Disclaimer

   EN    FR    IT 

 










Legend :    VFR   Marginal VFR   IFR   Intensive IFR   Very Intensive IFR
Visi :
Ceiling :
>= 8 km
>= 3000ft
5 to 8 km
1000 to 3000 ft
1500m to 5 km
500 to 1000 ft
800 to 1500m
200 to 500 ft
< 800m
< 200 ft
Symbols :   Thunderstorms  Fog  Heavy snow  Heavy precipitations  Wind > 20 kt
SIGMETs :     Misc.  Thunderstorms  Icing  Turbulence  Mountain Waves  Volcanic Ashes







- Airport Elevation : 844 ft
- IATA code : OSR


LKMT - Ostrava-Mosnov

CURRENT METAR :
  • 131630Z 19006KT CAVOK 00/M05 Q1012 NOSIG

EXPIRED METARs :
  • 131600Z 18005KT CAVOK 01/M05 Q1013 NOSIG
  • 131530Z 18005KT CAVOK 02/M05 Q1013 NOSIG
  • 131500Z 20006KT CAVOK 02/M05 Q1013 NOSIG
  • 131430Z 20008KT CAVOK 02/M04 Q1014 NOSIG
  • 131400Z 21009KT CAVOK 03/M04 Q1014 NOSIG

TAF TAF LKMT
Valid from the 13 at 12:00 until the 14 at 18:00 UTC


131100Z 1312/1418 21010KT 9999 SCT030
BECMG 1320/1322 21016KT
BECMG 1403/1405 9999 BKN025
TEMPO 1405/1416 21020G36KT 4000 RASN BKN013
No reported NOTAMs for that airfield.



MET'MAP, your aeronautical weather chart ! - Copyright ORBIFLY December 2007 - Disclaimer

ORBIFLY MET'MAP TEAM :

Programming & Development : Alexandra Zaïnal
Concept & Development : Baudouin d'Aumeries
Co-Development & Prog : Marc-Olivier Méhu
Technical & hardware support : Manuel Goepfert

Contact : metmap@orbifly.com




SOURCES & CREDITS :

   NOAA